Time;durP1;ratioP1;P1;durP2;ratioP2;P2;SDS_P1;SDS_P2;PMS_P1;PMS_P2;Temp;Humidity;BMP_temperature;BMP_pressure;BME280_temperature;BME280_humidity;BME280_pressure;Samples;Min_cycle;Max_cycle;Signal;HPM_P1;HPM_P2
2023/04/04 00:00:32;;;;;;;3.00;2.50;;;2.40;85.10;;;;;;5035133;28;20211;-82
2023/04/04 00:02:58;;;;;;;2.73;2.53;;;2.40;82.10;;;;;;5034050;28;20267;-81
2023/04/04 00:05:24;;;;;;;2.87;2.57;;;2.40;84.60;;;;;;5024124;28;20209;-82
2023/04/04 00:07:49;;;;;;;3.47;2.60;;;2.40;80.00;;;;;;5024441;28;20273;-82
2023/04/04 00:10:15;;;;;;;2.60;2.40;;;2.30;81.20;;;;;;5018081;28;20213;-82
2023/04/04 00:12:41;;;;;;;2.80;2.43;;;2.30;83.70;;;;;;5032889;28;20212;-82
2023/04/04 00:15:08;;;;;;;2.87;2.50;;;2.30;84.80;;;;;;5023599;28;20187;-82
2023/04/04 00:17:33;;;;;;;2.77;2.57;;;2.20;80.80;;;;;;5023817;28;20211;-82
2023/04/04 00:19:59;;;;;;;2.77;2.47;;;2.20;83.70;;;;;;5040668;28;20183;-82
2023/04/04 00:22:24;;;;;;;2.63;2.40;;;2.20;82.90;;;;;;5041146;28;20247;-82
2023/04/04 00:24:50;;;;;;;3.87;2.70;;;2.00;86.50;;;;;;5023277;28;20204;-82
2023/04/04 00:27:16;;;;;;;2.90;2.50;;;2.10;82.90;;;;;;5040575;28;20175;-81
2023/04/04 00:29:41;;;;;;;3.80;2.23;;;2.10;81.50;;;;;;5022743;28;20174;-82
2023/04/04 00:32:07;;;;;;;2.80;2.60;;;2.10;87.00;;;;;;5040559;28;20606;-82
2023/04/04 00:34:35;;;;;;;3.60;2.60;;;2.10;88.00;;;;;;5022812;28;20179;-82
2023/04/04 00:37:00;;;;;;;3.43;2.60;;;2.20;89.00;;;;;;5022974;28;20186;-82
2023/04/04 00:39:27;;;;;;;4.30;2.70;;;2.20;92.80;;;;;;5039656;28;20179;-82
2023/04/04 00:41:52;;;;;;;2.77;2.40;;;2.20;94.70;;;;;;5039705;28;20199;-82
2023/04/04 00:44:18;;;;;;;3.93;2.60;;;2.20;91.50;;;;;;5022572;28;20295;-83
2023/04/04 00:46:44;;;;;;;3.70;2.60;;;2.20;92.10;;;;;;5032067;28;20188;-82
2023/04/04 00:49:10;;;;;;;2.63;2.40;;;2.10;91.10;;;;;;5018228;28;20225;-82
2023/04/04 00:51:35;;;;;;;2.50;2.30;;;2.10;91.30;;;;;;5015782;28;20202;-81
2023/04/04 00:54:01;;;;;;;4.23;2.50;;;2.00;85.60;;;;;;5023370;28;20193;-82
2023/04/04 00:56:28;;;;;;;2.63;2.43;;;1.90;88.90;;;;;;5041849;28;20217;-81
2023/04/04 00:58:55;;;;;;;2.90;2.60;;;1.90;92.20;;;;;;5041003;28;20270;-81
2023/04/04 01:01:21;;;;;;;2.73;2.53;;;2.00;91.00;;;;;;5022967;28;20208;-83
2023/04/04 01:03:47;;;;;;;2.80;2.60;;;1.90;91.40;;;;;;5039675;28;20171;-81
2023/04/04 01:06:14;;;;;;;3.50;2.53;;;1.90;86.90;;;;;;5029383;28;20205;-81
2023/04/04 01:08:41;;;;;;;3.03;2.50;;;1.70;87.40;;;;;;5041004;28;20182;-82
2023/04/04 01:11:07;;;;;;;2.60;2.40;;;1.80;86.90;;;;;;5040945;28;20206;-82
2023/04/04 01:13:33;;;;;;;3.50;2.57;;;1.80;88.30;;;;;;5024283;28;20178;-83
2023/04/04 01:16:00;;;;;;;3.47;2.63;;;1.80;79.30;;;;;;5023806;28;20179;-84
2023/04/04 01:18:26;;;;;;;3.37;2.50;;;1.80;84.40;;;;;;5023716;28;20178;-83
2023/04/04 01:20:57;;;;;;;2.53;2.30;;;1.70;88.40;;;;;;5040571;28;20267;-82
2023/04/04 01:23:27;;;;;;;2.53;2.33;;;1.70;87.90;;;;;;5024006;28;20180;-82
2023/04/04 01:26:03;;;;;;;2.83;2.40;;;1.70;90.30;;;;;;5017840;28;20291;-82
2023/04/04 01:28:29;;;;;;;4.03;2.60;;;1.60;86.50;;;;;;5040343;28;20239;-82
2023/04/04 01:30:56;;;;;;;2.93;2.37;;;1.70;90.10;;;;;;5022264;28;20260;-82
2023/04/04 01:33:27;;;;;;;2.77;2.40;;;1.70;87.70;;;;;;5041216;28;20174;-81
2023/04/04 01:36:14;;;;;;;3.27;2.53;;;1.60;87.50;;;;;;5023342;28;20188;-82
2023/04/04 01:38:46;;;;;;;4.43;2.20;;;1.50;90.80;;;;;;5023550;28;20189;-82
2023/04/04 01:41:13;;;;;;;2.73;2.40;;;1.50;85.40;;;;;;5024219;28;20198;-82
2023/04/04 01:43:39;;;;;;;3.53;2.40;;;1.60;84.90;;;;;;5022592;28;20228;-82
2023/04/04 01:46:05;;;;;;;3.37;2.03;;;1.60;84.80;;;;;;5022644;28;20214;-82
2023/04/04 01:48:30;;;;;;;4.03;2.53;;;1.50;83.50;;;;;;5040466;28;20567;-83
2023/04/04 01:50:56;;;;;;;2.50;2.30;;;1.50;84.00;;;;;;5021925;28;20285;-82
2023/04/04 01:53:22;;;;;;;3.37;2.50;;;1.50;89.50;;;;;;5039701;28;20171;-82
2023/04/04 01:55:48;;;;;;;2.80;2.33;;;1.50;85.90;;;;;;5022610;28;20174;-82
2023/04/04 01:58:13;;;;;;;3.13;2.13;;;1.50;89.80;;;;;;5021096;28;20652;-82
2023/04/04 02:00:39;;;;;;;3.13;2.43;;;1.50;89.10;;;;;;5013467;28;20214;-82
2023/04/04 02:03:04;;;;;;;2.50;2.30;;;1.50;87.70;;;;;;5021885;28;20436;-82
2023/04/04 02:05:30;;;;;;;3.30;2.70;;;1.40;91.70;;;;;;5021117;28;20202;-83
2023/04/04 02:07:56;;;;;;;3.63;2.47;;;1.30;91.80;;;;;;5021750;28;20175;-83
2023/04/04 02:10:22;;;;;;;4.70;2.27;;;1.30;83.60;;;;;;5021088;28;20186;-83
2023/04/04 02:12:47;;;;;;;2.40;2.10;;;1.30;85.50;;;;;;5038558;28;20205;-84
2023/04/04 02:15:13;;;;;;;2.50;2.30;;;1.40;85.50;;;;;;5021147;28;20201;-82
2023/04/04 02:17:39;;;;;;;3.00;2.37;;;1.40;89.20;;;;;;5021193;28;20256;-82
2023/04/04 02:20:06;;;;;;;3.23;2.37;;;1.50;84.80;;;;;;5020155;28;20186;-83
2023/04/04 02:22:31;;;;;;;2.50;2.30;;;1.40;84.60;;;;;;5020148;28;20174;-82
2023/04/04 02:24:59;;;;;;;3.10;2.00;;;1.50;84.40;;;;;;5039017;28;20226;-83
2023/04/04 02:27:24;;;;;;;2.33;2.13;;;1.40;88.80;;;;;;5020663;28;20175;-83
2023/04/04 02:29:50;;;;;;;3.93;2.43;;;1.40;87.70;;;;;;5020735;28;20195;-83
2023/04/04 02:32:17;;;;;;;4.03;2.43;;;1.40;87.50;;;;;;5020872;28;20201;-82
2023/04/04 02:34:43;;;;;;;2.77;2.33;;;1.30;94.80;;;;;;5038550;28;20178;-83
2023/04/04 02:37:09;;;;;;;5.03;2.53;;;1.10;95.60;;;;;;5037815;28;20182;-84
2023/04/04 02:39:34;;;;;;;2.47;2.27;;;0.90;93.80;;;;;;5020248;28;20182;-81
2023/04/04 02:42:00;;;;;;;2.10;1.90;;;1.00;94.80;;;;;;5020384;28;20194;-81
2023/04/04 02:44:26;;;;;;;2.73;2.20;;;1.00;97.60;;;;;;5037399;28;20281;-82
2023/04/04 02:46:51;;;;;;;2.70;2.13;;;0.90;99.90;;;;;;5019759;28;20175;-83
2023/04/04 02:49:17;;;;;;;2.50;2.10;;;0.80;99.90;;;;;;5019978;28;20190;-82
2023/04/04 02:51:42;;;;;;;3.13;2.10;;;0.80;99.90;;;;;;5022974;28;20278;-82
2023/04/04 02:54:08;;;;;;;2.13;1.93;;;0.70;99.90;;;;;;5023610;28;20178;-83
2023/04/04 02:56:37;;;;;;;2.67;2.00;;;0.80;99.90;;;;;;5042391;28;20177;-82
2023/04/04 02:59:03;;;;;;;3.67;2.17;;;0.70;99.90;;;;;;5041660;28;20178;-82
2023/04/04 03:01:29;;;;;;;2.40;2.20;;;0.60;99.90;;;;;;5041095;28;20186;-82
2023/04/04 03:03:55;;;;;;;2.60;2.10;;;0.60;99.90;;;;;;5024113;28;20178;-83
2023/04/04 03:06:21;;;;;;;2.90;2.10;;;0.60;99.90;;;;;;5042201;28;20702;-82
2023/04/04 03:08:47;;;;;;;2.10;1.90;;;0.50;99.90;;;;;;5041821;28;20725;-83
2023/04/04 03:11:17;;;;;;;2.10;1.90;;;0.60;99.90;;;;;;5041366;28;20187;-83
2023/04/04 03:13:42;;;;;;;1.77;1.63;;;0.50;99.90;;;;;;5040580;28;20167;-83
2023/04/04 03:16:09;;;;;;;3.50;1.83;;;0.40;99.90;;;;;;5023068;28;20328;-84
2023/04/04 03:18:35;;;;;;;2.77;2.03;;;0.40;99.90;;;;;;5041124;28;20562;-83
2023/04/04 03:21:00;;;;;;;2.27;2.00;;;0.30;99.90;;;;;;5035897;22;20226;-89
2023/04/04 03:23:26;;;;;;;1.90;1.77;;;0.20;99.90;;;;;;5016100;28;20221;-87
2023/04/04 03:25:53;;;;;;;2.17;1.90;;;0.20;99.90;;;;;;5039823;28;20202;-87
2023/04/04 03:28:19;;;;;;;2.80;1.90;;;0.20;99.90;;;;;;5034376;28;20170;-87
2023/04/04 03:30:45;;;;;;;2.07;1.87;;;0.20;99.90;;;;;;5053678;28;20600;-89
2023/04/04 03:33:11;;;;;;;2.30;2.07;;;0.20;99.90;;;;;;5036306;28;20170;-88
2023/04/04 03:35:40;;;;;;;2.80;2.00;;;0.20;99.90;;;;;;5036670;28;20178;-87
2023/04/04 03:38:07;;;;;;;2.50;2.10;;;0.20;99.90;;;;;;5036596;28;20173;-87
2023/04/04 03:40:33;;;;;;;2.97;2.10;;;0.10;99.90;;;;;;5035740;28;20173;-87
2023/04/04 03:42:59;;;;;;;1.97;1.60;;;0.00;99.90;;;;;;5054199;28;20569;-87
2023/04/04 03:45:24;;;;;;;2.33;1.90;;;0.00;99.90;;;;;;5054076;28;20190;-87
2023/04/04 03:47:50;;;;;;;2.93;1.97;;;-0.10;99.90;;;;;;5028172;28;20182;-87
2023/04/04 03:50:16;;;;;;;2.87;2.10;;;-0.10;99.90;;;;;;5041701;28;20194;-87
2023/04/04 03:52:42;;;;;;;4.23;2.27;;;-0.10;99.90;;;;;;5033995;28;20225;-87
2023/04/04 03:55:08;;;;;;;2.30;2.10;;;-0.20;99.90;;;;;;5034088;28;20197;-87
2023/04/04 03:57:35;;;;;;;2.30;1.90;;;-0.20;99.90;;;;;;5033953;28;20181;-88
2023/04/04 04:00:01;;;;;;;2.40;2.20;;;-0.20;99.90;;;;;;5015242;28;20265;-87
2023/04/04 04:02:26;;;;;;;2.93;2.30;;;-0.30;99.90;;;;;;5044361;28;20201;-87
2023/04/04 04:04:52;;;;;;;2.40;2.20;;;-0.40;99.90;;;;;;5035832;28;20204;-88
2023/04/04 04:07:18;;;;;;;3.43;2.20;;;-0.40;99.90;;;;;;5035778;28;20200;-87
2023/04/04 04:09:43;;;;;;;3.07;2.10;;;-0.50;99.90;;;;;;5035551;28;20219;-87
2023/04/04 04:12:09;;;;;;;2.37;2.17;;;-0.50;99.90;;;;;;5053980;28;20200;-88
2023/04/04 04:14:34;;;;;;;2.27;2.07;;;-0.60;99.90;;;;;;5035698;28;20237;-87
2023/04/04 04:17:00;;;;;;;3.23;2.13;;;-0.70;99.90;;;;;;5035489;28;20183;-87
2023/04/04 04:19:25;;;;;;;3.23;2.20;;;-0.70;99.90;;;;;;5053379;28;20176;-87
2023/04/04 04:21:51;;;;;;;2.30;2.03;;;-0.70;99.90;;;;;;5035102;28;20691;-87
2023/04/04 04:24:17;;;;;;;3.13;2.20;;;-0.70;99.90;;;;;;5034234;28;20542;-87
2023/04/04 04:26:42;;;;;;;2.70;2.30;;;-0.70;99.90;;;;;;5023715;28;20187;-87
2023/04/04 04:29:08;;;;;;;2.47;2.07;;;-0.80;99.90;;;;;;5023619;28;20185;-87
2023/04/04 04:31:33;;;;;;;2.30;2.10;;;-0.80;99.90;;;;;;5034605;28;20205;-87
2023/04/04 04:33:59;;;;;;;2.10;1.90;;;-0.70;99.90;;;;;;5053415;28;20181;-88
2023/04/04 04:36:25;;;;;;;2.90;2.07;;;-0.60;99.90;;;;;;5035293;28;20204;-87
2023/04/04 04:38:51;;;;;;;2.43;2.07;;;-0.50;99.90;;;;;;5025723;28;20189;-86
2023/04/04 04:41:16;;;;;;;2.47;2.27;;;-0.60;99.90;;;;;;5032812;28;20622;-86
2023/04/04 04:43:42;;;;;;;2.70;1.90;;;-0.50;99.90;;;;;;5035151;28;20216;-87
2023/04/04 04:46:07;;;;;;;3.60;2.10;;;-0.60;99.90;;;;;;5035212;28;20197;-86
2023/04/04 04:48:33;;;;;;;4.57;2.30;;;-0.60;99.90;;;;;;5053091;28;20219;-86
2023/04/04 04:50:59;;;;;;;3.20;2.07;;;-0.50;99.90;;;;;;5052281;28;20200;-86
2023/04/04 04:53:25;;;;;;;3.67;2.23;;;-0.50;99.90;;;;;;5034735;28;20263;-86
2023/04/04 04:55:53;;;;;;;2.63;2.00;;;-0.50;99.90;;;;;;5023297;28;20639;-87
2023/04/04 04:58:22;;;;;;;2.57;2.00;;;-0.50;99.90;;;;;;5050497;28;20192;-86
2023/04/04 05:00:48;;;;;;;3.73;2.37;;;-0.60;99.90;;;;;;5031886;28;20209;-85
2023/04/04 05:03:14;;;;;;;2.53;2.03;;;-0.70;99.90;;;;;;5027207;28;20184;-86
2023/04/04 05:05:41;;;;;;;2.60;2.00;;;-0.70;99.90;;;;;;5041752;28;20241;-90
2023/04/04 05:08:07;;;;;;;2.70;2.20;;;-0.70;99.90;;;;;;5016018;28;20181;-89
2023/04/04 05:10:32;;;;;;;2.93;2.10;;;-0.80;99.90;;;;;;5032328;28;20238;-87
2023/04/04 05:12:58;;;;;;;2.90;2.27;;;-0.90;99.90;;;;;;5014063;28;20180;-88
2023/04/04 05:15:28;;;;;;;3.60;2.17;;;-0.90;99.90;;;;;;5015130;28;20202;-90
2023/04/04 05:17:54;;;;;;;3.20;2.20;;;-0.80;99.90;;;;;;5014859;28;20185;-90
2023/04/04 05:20:19;;;;;;;3.20;2.20;;;-0.70;99.90;;;;;;5027367;28;20567;-91
2023/04/04 05:22:45;;;;;;;3.63;2.27;;;-0.70;99.90;;;;;;5023489;28;20204;-88
2023/04/04 05:25:12;;;;;;;2.33;2.10;;;-0.70;99.90;;;;;;5036048;28;20656;-87
2023/04/04 05:27:38;;;;;;;1.93;1.73;;;-0.90;99.90;;;;;;5026698;28;20273;-87
2023/04/04 05:30:05;;;;;;;2.60;2.10;;;-0.80;99.90;;;;;;5033762;28;20635;-88
2023/04/04 05:32:30;;;;;;;2.40;2.10;;;-0.80;99.90;;;;;;5051983;28;20226;-90
2023/04/04 05:34:56;;;;;;;2.60;2.10;;;-0.90;99.90;;;;;;5052242;28;20184;-90
2023/04/04 05:37:21;;;;;;;3.33;2.27;;;-0.90;99.90;;;;;;5034319;28;20185;-90
2023/04/04 05:39:47;;;;;;;2.83;2.13;;;-0.80;99.90;;;;;;5034843;28;20182;-91
2023/04/04 05:42:13;;;;;;;2.43;2.00;;;-0.80;99.90;;;;;;5042167;28;20204;-89
2023/04/04 05:44:39;;;;;;;2.53;2.20;;;-0.70;99.90;;;;;;5051816;28;20290;-87
2023/04/04 05:47:04;;;;;;;2.43;2.10;;;-0.60;99.90;;;;;;5034844;28;20191;-87
2023/04/04 05:49:30;;;;;;;3.60;2.00;;;-0.50;99.90;;;;;;5034919;28;20638;-88
2023/04/04 05:51:55;;;;;;;2.80;2.30;;;-0.40;99.90;;;;;;5051904;28;20200;-87
2023/04/04 05:54:21;;;;;;;3.37;2.13;;;-0.40;99.90;;;;;;5034278;28;20184;-87
2023/04/04 05:56:47;;;;;;;3.00;2.30;;;-0.30;99.90;;;;;;5034281;28;20176;-87
2023/04/04 05:59:13;;;;;;;3.30;2.40;;;-0.30;99.90;;;;;;5042876;28;20183;-88
2023/04/04 06:01:39;;;;;;;3.03;2.27;;;-0.20;99.90;;;;;;5018090;28;20211;-86
2023/04/04 06:04:05;;;;;;;2.60;2.30;;;-0.10;99.90;;;;;;5025754;28;20262;-87
2023/04/04 06:06:34;;;;;;;4.00;2.57;;;0.00;99.90;;;;;;5051660;28;20212;-90
2023/04/04 06:09:00;;;;;;;8.27;3.97;;;0.10;99.90;;;;;;5051747;28;20259;-88
2023/04/04 06:11:26;;;;;;;5.67;4.37;;;1.20;99.90;;;;;;5051215;28;20306;-88
2023/04/04 06:13:53;;;;;;;4.73;3.20;;;2.40;99.90;;;;;;5028083;28;20170;-88
2023/04/04 06:16:20;;;;;;;5.20;3.23;;;3.20;99.90;;;;;;5022597;28;20213;-89
2023/04/04 06:18:45;;;;;;;5.40;3.53;;;3.70;99.90;;;;;;5014050;28;20184;-86
2023/04/04 06:21:12;;;;;;;4.00;3.53;;;4.10;99.90;;;;;;5014094;28;20283;-87
2023/04/04 06:23:38;;;;;;;3.83;2.80;;;4.40;99.90;;;;;;5032699;28;20181;-90
2023/04/04 06:26:04;;;;;;;3.40;2.70;;;4.10;99.90;;;;;;5036488;28;20212;-88
2023/04/04 06:28:30;;;;;;;8.83;4.83;;;3.00;97.90;;;;;;5019216;28;20199;-89
2023/04/04 06:30:55;;;;;;;8.87;5.80;;;2.40;99.80;;;;;;5018775;28;20274;-86
2023/04/04 06:33:21;;;;;;;6.40;4.53;;;1.90;99.90;;;;;;5017488;28;20187;-87
2023/04/04 06:35:46;;;;;;;5.07;3.43;;;1.80;99.90;;;;;;5024054;28;20270;-93
2023/04/04 06:38:12;;;;;;;4.90;3.97;;;1.60;99.90;;;;;;5040246;28;20211;-89
2023/04/04 06:40:38;;;;;;;7.30;6.10;;;1.40;99.90;;;;;;5018387;28;20184;-90
2023/04/04 06:43:03;;;;;;;7.07;5.00;;;1.50;99.90;;;;;;5018276;28;20180;-91
2023/04/04 06:45:32;;;;;;;6.27;4.57;;;1.60;99.90;;;;;;5036017;28;20202;-90
2023/04/04 06:47:58;;;;;;;4.97;4.20;;;1.50;99.90;;;;;;5035801;28;20201;-87
2023/04/04 06:50:24;;;;;;;5.03;3.67;;;1.50;99.90;;;;;;5033814;28;20253;-89
2023/04/04 06:52:51;;;;;;;3.97;2.73;;;1.50;99.90;;;;;;5031603;28;20261;-89
2023/04/04 06:55:17;;;;;;;3.20;2.40;;;1.50;99.90;;;;;;5017531;28;20273;-87
2023/04/04 06:57:43;;;;;;;4.93;2.63;;;1.50;99.90;;;;;;5025208;28;20252;-87
2023/04/04 07:00:09;;;;;;;4.50;2.30;;;1.50;99.90;;;;;;5007491;28;20187;-87
2023/04/04 07:02:35;;;;;;;4.50;2.43;;;1.60;99.90;;;;;;5008220;28;20205;-88
2023/04/04 07:05:02;;;;;;;4.47;2.70;;;1.70;99.90;;;;;;5020612;28;20211;-88
2023/04/04 07:07:28;;;;;;;3.17;2.40;;;1.70;99.90;;;;;;5016785;28;20183;-88
2023/04/04 07:09:55;;;;;;;2.23;2.03;;;1.90;99.90;;;;;;5016868;28;20625;-88
2023/04/04 07:12:20;;;;;;;2.73;2.33;;;2.00;99.90;;;;;;5020555;28;20652;-88
2023/04/04 07:14:46;;;;;;;3.60;2.10;;;2.00;98.00;;;;;;5017725;28;20629;-88
2023/04/04 07:17:12;;;;;;;3.10;2.33;;;2.10;97.50;;;;;;5011263;28;20206;-87
2023/04/04 07:19:38;;;;;;;4.17;3.00;;;2.20;98.40;;;;;;5041777;28;20237;-86
2023/04/04 07:22:03;;;;;;;5.30;2.30;;;2.30;90.20;;;;;;5014763;28;20689;-88
2023/04/04 07:24:29;;;;;;;2.97;2.43;;;2.40;90.80;;;;;;5019203;28;20179;-88
2023/04/04 07:26:55;;;;;;;5.80;3.00;;;2.30;86.50;;;;;;5014864;28;20176;-88
2023/04/04 07:29:20;;;;;;;3.57;2.43;;;2.40;89.70;;;;;;5017492;28;20176;-87
2023/04/04 07:31:46;;;;;;;3.93;2.40;;;2.40;82.50;;;;;;5016088;28;20194;-87
2023/04/04 07:34:12;;;;;;;4.20;2.70;;;2.40;84.80;;;;;;5025931;28;20178;-89
2023/04/04 07:36:38;;;;;;;3.63;2.50;;;2.50;81.50;;;;;;5017222;28;20185;-87
2023/04/04 07:39:03;;;;;;;2.43;2.23;;;2.60;81.70;;;;;;5036700;28;20641;-87
2023/04/04 07:41:29;;;;;;;4.50;2.90;;;2.70;80.00;;;;;;5040300;28;20205;-88
2023/04/04 07:43:57;;;;;;;2.60;2.30;;;2.80;80.20;;;;;;5015036;28;20186;-88
2023/04/04 07:46:23;;;;;;;2.60;2.20;;;3.00;75.80;;;;;;5033205;28;20206;-87
2023/04/04 07:48:49;;;;;;;2.83;2.47;;;3.10;78.00;;;;;;5016805;28;20202;-87
2023/04/04 07:51:15;;;;;;;4.03;2.40;;;3.20;76.20;;;;;;5024413;28;20263;-87
2023/04/04 07:53:40;;;;;;;3.10;2.60;;;3.30;71.40;;;;;;5016797;28;20174;-87
2023/04/04 07:56:06;;;;;;;2.77;2.20;;;3.40;74.40;;;;;;5034494;28;20659;-87
2023/04/04 07:58:32;;;;;;;4.53;2.30;;;3.50;68.40;;;;;;5034512;28;20232;-86
2023/04/04 08:00:59;;;;;;;3.00;2.53;;;3.50;61.60;;;;;;5016051;28;20215;-87
2023/04/04 08:03:24;;;;;;;3.90;3.00;;;3.50;59.90;;;;;;5024134;28;20184;-86
2023/04/04 08:05:50;;;;;;;3.70;2.63;;;3.50;65.10;;;;;;5033889;28;20593;-86
2023/04/04 08:08:16;;;;;;;2.93;2.50;;;3.60;67.50;;;;;;5033989;28;20178;-87
2023/04/04 08:10:46;;;;;;;3.60;2.30;;;3.70;58.30;;;;;;5015730;28;20197;-86
2023/04/04 08:13:12;;;;;;;3.60;2.20;;;3.70;58.70;;;;;;5016224;28;20214;-86
2023/04/04 08:15:38;;;;;;;2.37;2.10;;;3.90;55.40;;;;;;5027343;28;20287;-86
2023/04/04 08:18:04;;;;;;;4.10;2.37;;;3.90;56.90;;;;;;5053795;28;20245;-85
2023/04/04 08:20:30;;;;;;;3.50;2.50;;;4.10;62.70;;;;;;5035362;28;20180;-85
2023/04/04 08:22:56;;;;;;;3.30;2.20;;;4.20;56.10;;;;;;5035569;28;20300;-88
2023/04/04 08:25:21;;;;;;;2.97;2.10;;;4.20;52.70;;;;;;5035545;28;20577;-87
2023/04/04 08:27:47;;;;;;;3.40;2.47;;;4.20;50.20;;;;;;5035637;28;20200;-87
2023/04/04 08:30:14;;;;;;;3.27;2.40;;;4.10;51.60;;;;;;5034949;28;20179;-87
2023/04/04 08:32:41;;;;;;;3.93;2.20;;;4.30;57.20;;;;;;5053257;28;20278;-87
2023/04/04 08:35:07;;;;;;;4.23;2.43;;;4.60;55.40;;;;;;5035602;28;20181;-86
2023/04/04 08:37:34;;;;;;;3.13;2.43;;;4.70;50.70;;;;;;5053517;28;20249;-87
2023/04/04 08:40:00;;;;;;;2.33;2.10;;;4.90;54.40;;;;;;5034814;28;20272;-87
2023/04/04 08:42:27;;;;;;;3.47;2.50;;;5.10;50.70;;;;;;5053129;28;20203;-87
2023/04/04 08:44:54;;;;;;;3.90;2.40;;;5.20;52.40;;;;;;5052982;28;20200;-86
2023/04/04 08:47:21;;;;;;;2.60;2.27;;;5.10;45.40;;;;;;5035401;28;20200;-86
2023/04/04 08:49:48;;;;;;;3.80;2.53;;;4.90;45.30;;;;;;5031706;28;20656;-85
2023/04/04 08:52:18;;;;;;;3.00;2.40;;;4.50;48.20;;;;;;5035528;28;20194;-85
2023/04/04 08:54:45;;;;;;;3.23;2.40;;;4.40;49.30;;;;;;5033273;28;20190;-85
2023/04/04 08:57:11;;;;;;;2.47;2.17;;;4.70;47.60;;;;;;5015798;28;20316;-82
2023/04/04 08:59:36;;;;;;;2.83;2.30;;;4.90;47.30;;;;;;5015693;28;20193;-78
2023/04/04 09:02:25;;;;;;;2.77;2.23;;;5.20;42.40;;;;;;5034362;28;20625;-83
2023/04/04 09:04:52;;;;;;;2.73;2.20;;;5.60;55.60;;;;;;5038404;28;20275;-83
2023/04/04 09:07:19;;;;;;;4.57;2.70;;;6.30;62.20;;;;;;5019002;28;20647;-82
2023/04/04 09:09:46;;;;;;;5.50;2.43;;;6.30;45.80;;;;;;5044259;28;20705;-82
2023/04/04 09:12:13;;;;;;;3.40;2.60;;;6.20;48.50;;;;;;5033084;28;20250;-82
2023/04/04 09:14:40;;;;;;;3.17;2.40;;;6.10;42.50;;;;;;5031147;28;20181;-82
2023/04/04 09:17:09;;;;;;;3.03;2.30;;;5.80;45.10;;;;;;5033727;28;20177;-83
2023/04/04 09:19:34;;;;;;;2.90;2.60;;;5.80;48.00;;;;;;5033292;28;20719;-82
2023/04/04 09:22:00;;;;;;;3.60;2.80;;;5.90;50.00;;;;;;5034361;28;20214;-82
2023/04/04 09:24:38;;;;;;;4.93;2.70;;;6.40;63.90;;;;;;5015043;28;20183;-83
2023/04/04 09:27:03;;;;;;;3.43;2.40;;;6.40;61.60;;;;;;5040110;28;20669;-88
2023/04/04 09:29:29;;;;;;;2.50;2.30;;;6.70;48.80;;;;;;5017772;28;20673;-85
2023/04/04 09:31:55;;;;;;;2.70;2.33;;;6.80;43.70;;;;;;5025998;28;20190;-87
2023/04/04 09:34:21;;;;;;;3.33;2.53;;;7.00;45.50;;;;;;5032451;28;20659;-85
2023/04/04 09:36:47;;;;;;;3.10;2.37;;;7.10;45.30;;;;;;5052212;28;20201;-87
2023/04/04 09:39:15;;;;;;;4.17;2.50;;;7.30;40.30;;;;;;5052208;28;20169;-86
2023/04/04 09:41:41;;;;;;;3.70;2.40;;;7.40;35.30;;;;;;5033910;28;20552;-87
2023/04/04 09:44:09;;;;;;;3.93;2.47;;;7.30;38.70;;;;;;5052173;28;20170;-90
2023/04/04 09:46:36;;;;;;;3.03;2.40;;;7.50;33.00;;;;;;5034145;28;20564;-87
2023/04/04 09:49:03;;;;;;;3.40;2.50;;;7.00;23.10;;;;;;5034179;28;20170;-87
2023/04/04 09:51:36;;;;;;;2.90;2.57;;;7.30;25.80;;;;;;5051213;28;20207;-87
2023/04/04 09:54:01;;;;;;;2.83;2.20;;;7.80;33.50;;;;;;5052213;28;20179;-87
2023/04/04 09:56:27;;;;;;;3.40;2.57;;;8.00;29.30;;;;;;5052146;28;20201;-86
2023/04/04 09:58:53;;;;;;;4.43;2.80;;;8.00;25.60;;;;;;5033618;28;20205;-86
2023/04/04 10:01:19;;;;;;;2.77;2.50;;;7.90;23.00;;;;;;5033550;28;20208;-87
2023/04/04 10:03:52;;;;;;;3.10;2.80;;;8.20;32.00;;;;;;5034121;28;20181;-86
2023/04/04 10:06:19;;;;;;;4.53;2.50;;;8.50;28.80;;;;;;5034250;28;20192;-86
2023/04/04 10:08:45;;;;;;;4.47;2.50;;;8.10;22.50;;;;;;5034007;28;20174;-86
2023/04/04 10:11:11;;;;;;;3.07;2.60;;;8.10;22.00;;;;;;5033469;28;20193;-86
2023/04/04 10:13:42;;;;;;;3.30;2.30;;;8.00;23.30;;;;;;5051678;28;20175;-87
2023/04/04 10:16:09;;;;;;;4.27;2.30;;;7.40;22.10;;;;;;5033811;28;20560;-86
2023/04/04 10:18:35;;;;;;;4.20;2.40;;;7.40;33.70;;;;;;5051645;28;20174;-86
2023/04/04 10:21:04;;;;;;;2.40;2.20;;;7.30;28.30;;;;;;5051245;28;20203;-85
2023/04/04 10:23:30;;;;;;;2.83;2.00;;;7.10;27.70;;;;;;5033980;28;20229;-84
2023/04/04 10:25:57;;;;;;;2.67;2.30;;;7.10;31.90;;;;;;5051741;28;20571;-87
2023/04/04 10:28:25;;;;;;;4.57;2.47;;;7.20;36.90;;;;;;5051628;28;20266;-85
2023/04/04 10:31:08;;;;;;;2.77;2.30;;;7.60;28.20;;;;;;5033308;28;20224;-85
2023/04/04 10:34:03;;;;;;;3.87;2.50;;;7.50;22.70;;;;;;5052237;28;20274;-83
2023/04/04 10:36:51;;;;;;;3.83;2.57;;;8.10;27.90;;;;;;5011440;28;20181;-85
2023/04/04 10:39:31;;;;;;;4.17;2.87;;;8.70;33.00;;;;;;5056153;28;20190;-84
2023/04/04 10:41:57;;;;;;;3.20;2.60;;;8.90;27.60;;;;;;5034485;28;20276;-85
2023/04/04 10:44:28;;;;;;;3.50;2.57;;;8.80;22.80;;;;;;5051876;28;20579;-83
2023/04/04 10:46:57;;;;;;;2.70;2.43;;;8.30;22.90;;;;;;5042532;28;20182;-85
2023/04/04 10:49:23;;;;;;;3.23;2.60;;;8.70;24.10;;;;;;5052062;28;20166;-82
2023/04/04 10:51:51;;;;;;;3.27;2.87;;;9.10;44.70;;;;;;5052222;28;20225;-83
2023/04/04 10:54:17;;;;;;;3.60;2.93;;;9.30;40.60;;;;;;5053500;28;20174;-83
2023/04/04 10:56:43;;;;;;;3.97;2.90;;;9.30;46.30;;;;;;5034483;28;20182;-82
2023/04/04 10:59:14;;;;;;;4.83;2.90;;;9.50;44.90;;;;;;5033974;28;20177;-83
2023/04/04 11:01:54;;;;;;;3.40;3.10;;;9.80;45.90;;;;;;5033060;28;20732;-83
2023/04/04 11:04:27;;;;;;;3.60;2.80;;;10.30;52.00;;;;;;5034295;28;20177;-85
2023/04/04 11:07:05;;;;;;;3.43;2.90;;;10.40;21.50;;;;;;5033701;28;20269;-85
2023/04/04 11:09:51;;;;;;;4.40;3.03;;;10.00;17.40;;;;;;5051478;28;20182;-85
2023/04/04 11:12:30;;;;;;;3.50;2.93;;;10.10;18.20;;;;;;5036450;28;20196;-85
2023/04/04 11:15:02;;;;;;;3.57;3.10;;;10.00;21.60;;;;;;5055079;28;20252;-85
2023/04/04 11:17:53;;;;;;;3.77;3.17;;;9.60;19.60;;;;;;5037242;28;20174;-85
2023/04/04 11:20:33;;;;;;;4.33;3.10;;;9.60;21.50;;;;;;5037304;28;20607;-85
2023/04/04 11:23:19;;;;;;;4.63;3.37;;;9.30;20.40;;;;;;5037106;28;20236;-86
2023/04/04 11:25:52;;;;;;;3.73;3.10;;;9.20;20.50;;;;;;5054558;28;20211;-85
2023/04/04 11:28:32;;;;;;;4.13;3.20;;;8.80;18.30;;;;;;5054643;28;20175;-85
2023/04/04 11:31:14;;;;;;;3.90;3.13;;;9.10;27.20;;;;;;5036314;28;20226;-85
2023/04/04 11:33:56;;;;;;;3.50;3.20;;;9.00;22.50;;;;;;5054761;28;20175;-85
2023/04/04 11:36:34;;;;;;;4.33;3.40;;;9.20;23.70;;;;;;5036693;28;20192;-85
2023/04/04 11:39:29;;;;;;;3.53;3.23;;;9.30;23.80;;;;;;5054672;28;20200;-85
2023/04/04 11:42:12;;;;;;;3.90;3.00;;;9.70;18.70;;;;;;5035574;28;20223;-85
2023/04/04 11:44:53;;;;;;;3.33;3.03;;;9.70;22.70;;;;;;5054579;28;20252;-85
2023/04/04 11:47:21;;;;;;;3.67;3.10;;;9.90;19.80;;;;;;5054556;28;20178;-85
2023/04/04 11:49:48;;;;;;;3.47;3.17;;;9.90;20.40;;;;;;5053665;28;20178;-85
2023/04/04 11:52:16;;;;;;;6.07;3.10;;;9.60;16.30;;;;;;5036348;28;20280;-84
2023/04/04 11:54:44;;;;;;;5.50;3.37;;;9.20;17.90;;;;;;5036852;28;20190;-84
2023/04/04 11:57:15;;;;;;;3.70;3.10;;;9.00;17.90;;;;;;5036353;28;20177;-85
2023/04/04 11:59:46;;;;;;;5.13;3.37;;;9.00;20.40;;;;;;5054016;28;20174;-82
2023/04/04 12:02:15;;;;;;;3.90;3.00;;;8.90;23.00;;;;;;5055262;28;20217;-82
2023/04/04 12:04:44;;;;;;;3.63;3.20;;;9.10;28.70;;;;;;5054168;28;20653;-81
2023/04/04 12:07:11;;;;;;;4.07;3.30;;;9.50;25.20;;;;;;5052963;28;20172;-85
2023/04/04 12:09:37;;;;;;;3.33;3.00;;;9.30;17.20;;;;;;5035533;28;20174;-83
2023/04/04 12:12:03;;;;;;;4.53;3.10;;;9.50;16.30;;;;;;5053914;28;20221;-82
2023/04/04 12:14:32;;;;;;;3.30;2.97;;;9.90;17.30;;;;;;5036055;28;20202;-84
2023/04/04 12:16:58;;;;;;;3.40;3.10;;;9.80;14.90;;;;;;5053619;28;20171;-84
2023/04/04 12:19:26;;;;;;;3.40;3.10;;;10.00;12.30;;;;;;5035867;28;20257;-84
2023/04/04 12:21:53;;;;;;;3.67;3.20;;;9.40;13.40;;;;;;5034935;28;20272;-84
2023/04/04 12:24:19;;;;;;;4.07;3.00;;;8.60;14.80;;;;;;5035816;28;20580;-83
2023/04/04 12:26:47;;;;;;;5.37;3.50;;;9.10;23.40;;;;;;5035864;28;20242;-83
2023/04/04 12:29:15;;;;;;;3.30;3.00;;;9.10;19.90;;;;;;5053647;28;20178;-84
2023/04/04 12:31:43;;;;;;;3.67;3.10;;;9.60;15.20;;;;;;5034978;28;20205;-83
2023/04/04 12:34:40;;;;;;;3.57;3.23;;;9.70;14.50;;;;;;5036236;28;20302;-83
2023/04/04 12:37:10;;;;;;;3.40;3.10;;;9.80;12.60;;;;;;5035047;28;20665;-82
2023/04/04 12:39:44;;;;;;;3.57;3.10;;;9.70;14.70;;;;;;5034791;28;20179;-79
2023/04/04 12:42:11;;;;;;;3.77;3.07;;;9.40;12.00;;;;;;5035188;28;20259;-83
2023/04/04 12:44:38;;;;;;;3.40;3.10;;;9.40;14.60;;;;;;5035143;28;20181;-84
2023/04/04 12:47:09;;;;;;;4.23;3.30;;;9.80;13.90;;;;;;5023723;28;20172;-83
2023/04/04 12:49:38;;;;;;;4.57;3.20;;;10.30;17.10;;;;;;5015583;28;20642;-83
2023/04/04 12:52:06;;;;;;;4.03;3.20;;;10.50;13.60;;;;;;5015741;28;20243;-85
2023/04/04 12:54:34;;;;;;;5.90;3.80;;;11.00;14.40;;;;;;5033222;28;20744;-84
2023/04/04 12:57:03;;;;;;;4.13;3.50;;;11.10;6.10;;;;;;5015590;28;20171;-86